CSG9 weather

Sagard Heliport
Sagard, Quebec, Canada

Public forecast

Using degrees Celsius for public forecast. Weather courtesy of forecast.io.

Closest aviation weather report (METAR) to Sagard Heliport

Closest report is CFB Bagotville, 42.1 nm (77.9 km) WNW. Retrieved 2019/10/20 04:00 UTC (31 minutes ago):

CYBG 200400Z 22002KT 25SM SKC M00/M01 A3003 RMK SLP178

Closest aviation forecast (TAF) to Sagard Heliport

Forecast is more than 12 hours old.

Closest forecast is Charlevoix Airport, 24.3 nm (45.1 km) SSW. Retrieved 2018/06/10 18:00 UTC (1 year ago):

TAF CYML 101730Z 1018/1106 12005KT P6SM FEW060 FM102100 14006KT P6SM SCT080 BECMG 1021/1023 VRB03KT RMK NXT FCST BY 110000Z